Time;durP1;ratioP1;P1;durP2;ratioP2;P2;SDS_P1;SDS_P2;PMS_P1;PMS_P2;Temp;Humidity;BMP_temperature;BMP_pressure;BME280_temperature;BME280_humidity;BME280_pressure;Samples;Min_cycle;Max_cycle;Signal;HPM_P1;HPM_P2
2024/03/29 00:00:03;;;;;;;;;;;;;;;;;;5011855;28;19987;-62
2024/03/29 00:02:28;;;;;;;;;;;;;;;;;;5011911;28;19918;-62
2024/03/29 00:04:54;;;;;;;;;;;;;;;;;;5012338;28;19916;-60
2024/03/29 00:07:20;;;;;;;;;;;;;;;;;;5009902;28;19936;-61
2024/03/29 00:09:46;;;;;;;;;;;;;;;;;;5012485;28;20005;-61
2024/03/29 00:12:12;;;;;;;;;;;;;;;;;;5010411;28;19917;-61
2024/03/29 00:14:39;;;;;;;;;;;;;;;;;;5012740;28;20008;-61
2024/03/29 00:17:05;;;;;;;;;;;;;;;;;;5011636;28;19913;-61
2024/03/29 00:19:32;;;;;;;;;;;;;;;;;;5011824;28;19920;-61
2024/03/29 00:21:57;;;;;;;;;;;;;;;;;;5010840;28;19956;-58
2024/03/29 00:24:23;;;;;;;;;;;;;;;;;;5013416;28;19972;-61
2024/03/29 00:26:49;;;;;;;;;;;;;;;;;;5011486;28;19917;-61
2024/03/29 00:29:15;;;;;;;;;;;;;;;;;;5010967;28;20406;-59
2024/03/29 00:31:41;;;;;;;;;;;;;;;;;;5010439;28;19928;-61
2024/03/29 00:34:07;;;;;;;;;;;;;;;;;;5011806;28;20048;-62
2024/03/29 00:36:33;;;;;;;;;;;;;;;;;;5010374;28;19917;-60
2024/03/29 00:38:59;;;;;;;;;;;;;;;;;;5010931;28;19929;-61
2024/03/29 00:41:24;;;;;;;;;;;;;;;;;;5011680;28;19918;-62
2024/03/29 00:43:51;;;;;;;;;;;;;;;;;;5010575;28;19921;-61
2024/03/29 00:46:16;;;;;;;;;;;;;;;;;;5011045;28;20024;-61
2024/03/29 00:48:45;;;;;;;;;;;;;;;;;;5012052;28;20400;-61
2024/03/29 00:51:10;;;;;;;;;;;;;;;;;;5009043;28;19949;-61
2024/03/29 00:53:36;;;;;;;;;;;;;;;;;;5010576;28;20342;-59
2024/03/29 00:56:02;;;;;;;;;;;;;;;;;;5011023;28;19921;-61
2024/03/29 00:58:28;;;;;;;;;;;;;;;;;;5010517;28;19956;-61
2024/03/29 01:00:54;;;;;;;;;;;;;;;;;;5010323;28;19918;-61
2024/03/29 01:03:20;;;;;;;;;;;;;;;;;;5010857;28;20376;-61
2024/03/29 01:05:45;;;;;;;;;;;;;;;;;;5010804;28;19914;-60
2024/03/29 01:08:11;;;;;;;;;;;;;;;;;;5010332;28;20000;-61
2024/03/29 01:10:37;;;;;;;;;;;;;;;;;;5010722;28;19921;-61
2024/03/29 01:13:03;;;;;;;;;;;;;;;;;;5012756;28;20426;-62
2024/03/29 01:15:29;;;;;;;;;;;;;;;;;;5010324;28;19917;-61
2024/03/29 01:17:55;;;;;;;;;;;;;;;;;;5010468;28;20379;-61
2024/03/29 01:20:21;;;;;;;;;;;;;;;;;;5010208;28;19929;-59
2024/03/29 01:22:47;;;;;;;;;;;;;;;;;;5009021;28;20366;-60
2024/03/29 01:25:14;;;;;;;;;;;;;;;;;;5010915;28;19920;-61
2024/03/29 01:27:40;;;;;;;;;;;;;;;;;;5011064;28;19924;-61
2024/03/29 01:30:05;;;;;;;;;;;;;;;;;;5010188;28;19914;-61
2024/03/29 01:32:31;;;;;;;;;;;;;;;;;;5010789;28;19917;-62
2024/03/29 01:34:57;;;;;;;;;;;;;;;;;;5010294;28;19921;-60
2024/03/29 01:37:23;;;;;;;;;;;;;;;;;;5008967;28;20418;-60
2024/03/29 01:39:49;;;;;;;;;;;;;;;;;;5010332;28;19975;-61
2024/03/29 01:42:15;;;;;;;;;;;;;;;;;;5009218;28;19983;-60
2024/03/29 01:44:41;;;;;;;;;;;;;;;;;;5010444;28;19917;-61
2024/03/29 01:47:06;;;;;;;;;;;;;;;;;;5012802;28;19917;-62
2024/03/29 01:49:32;;;;;;;;;;;;;;;;;;5011852;28;19914;-62
2024/03/29 01:51:58;;;;;;;;;;;;;;;;;;5010991;28;19920;-61
2024/03/29 01:54:24;;;;;;;;;;;;;;;;;;5010775;28;19921;-60
2024/03/29 01:56:50;;;;;;;;;;;;;;;;;;5014714;28;20004;-62
2024/03/29 01:59:16;;;;;;;;;;;;;;;;;;5011990;28;20447;-62
2024/03/29 02:01:42;;;;;;;;;;;;;;;;;;5012241;28;19996;-60
2024/03/29 02:04:08;;;;;;;;;;;;;;;;;;5009384;28;19917;-61
2024/03/29 02:06:34;;;;;;;;;;;;;;;;;;5008871;28;19917;-57
2024/03/29 02:09:00;;;;;;;;;;;;;;;;;;5012618;28;19999;-60
2024/03/29 02:11:26;;;;;;;;;;;;;;;;;;5014337;28;20279;-61
2024/03/29 02:13:51;;;;;;;;;;;;;;;;;;5014857;28;19931;-62
2024/03/29 02:16:17;;;;;;;;;;;;;;;;;;5013596;28;19921;-62
2024/03/29 02:18:43;;;;;;;;;;;;;;;;;;5017740;28;19909;-61
2024/03/29 02:21:09;;;;;;;;;;;;;;;;;;5013184;28;19992;-61
2024/03/29 02:23:35;;;;;;;;;;;;;;;;;;5017624;28;19941;-62
2024/03/29 02:26:01;;;;;;;;;;;;;;;;;;5017493;28;19921;-62
2024/03/29 02:28:27;;;;;;;;;;;;;;;;;;5013592;28;19917;-60
2024/03/29 02:30:52;;;;;;;;;;;;;;;;;;5013125;28;19914;-62
2024/03/29 02:33:18;;;;;;;;;;;;;;;;;;5016365;28;19923;-62
2024/03/29 02:35:44;;;;;;;;;;;;;;;;;;5013315;28;19932;-61
2024/03/29 02:38:10;;;;;;;;;;;;;;;;;;5014307;28;20403;-62
2024/03/29 02:40:36;;;;;;;;;;;;;;;;;;5014850;28;19913;-61
2024/03/29 02:43:02;;;;;;;;;;;;;;;;;;5017638;28;19917;-62
2024/03/29 02:45:27;;;;;;;;;;;;;;;;;;5014959;28;20184;-61
2024/03/29 02:50:38;;;;;;;;;;;;;;;;;;5012113;28;19929;-62
2024/03/29 02:53:04;;;;;;;;;;;;;;;;;;5014769;28;19913;-62
2024/03/29 02:55:30;;;;;;;;;;;;;;;;;;5012891;28;19963;-62
2024/03/29 02:57:56;;;;;;;;;;;;;;;;;;5013222;28;19913;-61
2024/03/29 03:00:21;;;;;;;;;;;;;;;;;;5014325;28;19925;-60
2024/03/29 03:02:47;;;;;;;;;;;;;;;;;;5013137;28;19913;-61
2024/03/29 03:05:13;;;;;;;;;;;;;;;;;;5021633;28;19945;-61
2024/03/29 03:13:08;;;;;;;;;;;;;;;;;;5027045;28;19972;-61
2024/03/29 03:15:34;;;;;;;;;;;;;;;;;;5013368;28;19917;-62
2024/03/29 03:18:00;;;;;;;;;;;;;;;;;;5010581;28;19914;-62
2024/03/29 03:20:30;;;;;;;;;;;;;;;;;;5012317;28;20439;-62
2024/03/29 03:22:57;;;;;;;;;;;;;;;;;;5012788;28;19949;-61
2024/03/29 03:25:23;;;;;;;;;;;;;;;;;;5010478;28;19914;-62
2024/03/29 03:27:48;;;;;;;;;;;;;;;;;;5012063;28;20490;-62
2024/03/29 03:30:14;;;;;;;;;;;;;;;;;;5010805;28;19914;-62
2024/03/29 03:32:40;;;;;;;;;;;;;;;;;;5012672;28;20542;-62
2024/03/29 03:35:06;;;;;;;;;;;;;;;;;;5012020;28;19924;-61
2024/03/29 03:37:32;;;;;;;;;;;;;;;;;;5012204;28;19919;-62
2024/03/29 03:39:58;;;;;;;;;;;;;;;;;;5010652;28;19921;-62
2024/03/29 03:42:24;;;;;;;;;;;;;;;;;;5012376;28;20354;-62
2024/03/29 03:44:49;;;;;;;;;;;;;;;;;;5011781;28;19941;-61
2024/03/29 03:47:15;;;;;;;;;;;;;;;;;;5023710;28;20037;-62
2024/03/29 03:49:41;;;;;;;;;;;;;;;;;;5012843;28;19913;-62
2024/03/29 03:52:07;;;;;;;;;;;;;;;;;;5014651;28;19917;-61
2024/03/29 03:54:34;;;;;;;;;;;;;;;;;;5011533;28;19920;-61
2024/03/29 03:57:00;;;;;;;;;;;;;;;;;;5011836;28;19925;-62
2024/03/29 03:59:26;;;;;;;;;;;;;;;;;;5012790;28;19913;-62
2024/03/29 04:01:52;;;;;;;;;;;;;;;;;;5014415;28;19913;-62
2024/03/29 04:04:18;;;;;;;;;;;;;;;;;;5012240;28;20419;-61
2024/03/29 04:06:43;;;;;;;;;;;;;;;;;;5015512;28;19968;-62
2024/03/29 04:09:10;;;;;;;;;;;;;;;;;;5009964;28;19921;-61
2024/03/29 04:11:35;;;;;;;;;;;;;;;;;;5011310;28;19976;-61
2024/03/29 04:14:01;;;;;;;;;;;;;;;;;;5011833;28;19918;-61
2024/03/29 04:16:27;;;;;;;;;;;;;;;;;;5011170;28;20016;-61
2024/03/29 04:18:53;;;;;;;;;;;;;;;;;;5013432;28;19921;-60
2024/03/29 04:21:19;;;;;;;;;;;;;;;;;;5033456;28;20451;-59
2024/03/29 04:23:45;;;;;;;;;;;;;;;;;;5014253;28;19925;-60
2024/03/29 04:26:11;;;;;;;;;;;;;;;;;;5015427;28;19916;-61
2024/03/29 04:28:36;;;;;;;;;;;;;;;;;;5013853;28;20311;-59
2024/03/29 04:31:02;;;;;;;;;;;;;;;;;;5011946;28;19914;-62
2024/03/29 04:33:28;;;;;;;;;;;;;;;;;;5009273;28;19963;-62
2024/03/29 04:35:54;;;;;;;;;;;;;;;;;;5012986;28;19917;-62
2024/03/29 04:38:20;;;;;;;;;;;;;;;;;;5030021;28;19917;-61
2024/03/29 04:40:46;;;;;;;;;;;;;;;;;;5032201;28;19949;-62
2024/03/29 04:43:12;;;;;;;;;;;;;;;;;;5030160;28;19913;-61
2024/03/29 04:45:38;;;;;;;;;;;;;;;;;;5032841;28;19948;-62
2024/03/29 04:48:04;;;;;;;;;;;;;;;;;;5019437;28;19913;-62
2024/03/29 04:50:30;;;;;;;;;;;;;;;;;;5013268;28;19914;-62
2024/03/29 04:52:55;;;;;;;;;;;;;;;;;;5012428;28;19910;-62
2024/03/29 04:55:21;;;;;;;;;;;;;;;;;;5013120;28;20352;-62
2024/03/29 04:57:47;;;;;;;;;;;;;;;;;;5013010;28;19924;-62
2024/03/29 05:00:13;;;;;;;;;;;;;;;;;;5013853;28;19921;-61
2024/03/29 05:02:39;;;;;;;;;;;;;;;;;;5013332;28;19924;-62
2024/03/29 05:05:05;;;;;;;;;;;;;;;;;;5015642;28;20331;-62
2024/03/29 05:07:30;;;;;;;;;;;;;;;;;;5014515;28;19992;-61
2024/03/29 05:09:56;;;;;;;;;;;;;;;;;;5015326;28;19913;-60
2024/03/29 05:12:22;;;;;;;;;;;;;;;;;;5011634;28;20284;-62
2024/03/29 05:14:49;;;;;;;;;;;;;;;;;;5014308;28;19917;-60
2024/03/29 05:17:15;;;;;;;;;;;;;;;;;;5012775;28;19945;-61
2024/03/29 05:19:41;;;;;;;;;;;;;;;;;;5014083;28;19919;-60
2024/03/29 05:22:07;;;;;;;;;;;;;;;;;;5014508;28;19913;-61
2024/03/29 05:24:32;;;;;;;;;;;;;;;;;;5014417;28;19913;-61
2024/03/29 05:26:58;;;;;;;;;;;;;;;;;;5016873;28;20027;-60
2024/03/29 05:29:24;;;;;;;;;;;;;;;;;;5018330;28;19913;-62
2024/03/29 05:31:50;;;;;;;;;;;;;;;;;;5010669;28;20295;-61
2024/03/29 05:34:16;;;;;;;;;;;;;;;;;;5010512;28;19926;-61
2024/03/29 05:36:43;;;;;;;;;;;;;;;;;;5013629;28;20397;-62
2024/03/29 05:39:09;;;;;;;;;;;;;;;;;;5011523;28;19919;-62
2024/03/29 05:41:35;;;;;;;;;;;;;;;;;;5017326;28;20327;-61
2024/03/29 05:44:01;;;;;;;;;;;;;;;;;;5011090;28;19921;-62
2024/03/29 05:46:27;;;;;;;;;;;;;;;;;;5014993;28;19919;-62
2024/03/29 05:48:53;;;;;;;;;;;;;;;;;;5020485;28;20384;-62
2024/03/29 05:51:19;;;;;;;;;;;;;;;;;;5022813;28;19971;-62
2024/03/29 05:53:45;;;;;;;;;;;;;;;;;;5018066;28;19988;-61
2024/03/29 05:56:11;;;;;;;;;;;;;;;;;;5022256;28;20337;-61
2024/03/29 05:58:37;;;;;;;;;;;;;;;;;;5019047;28;19909;-60
2024/03/29 06:01:02;;;;;;;;;;;;;;;;;;5014899;28;19917;-62
2024/03/29 06:03:29;;;;;;;;;;;;;;;;;;5014394;28;20489;-61
2024/03/29 06:05:55;;;;;;;;;;;;;;;;;;5013728;28;19914;-62
2024/03/29 06:08:21;;;;;;;;;;;;;;;;;;5013565;28;20617;-62
2024/03/29 06:10:46;;;;;;;;;;;;;;;;;;5010619;28;20435;-62
2024/03/29 06:18:58;;;;;;;;;;;;;;;;;;5014079;28;19916;-61
2024/03/29 06:21:24;;;;;;;;;;;;;;;;;;5011451;28;19913;-61
2024/03/29 06:23:49;;;;;;;;;;;;;;;;;;5012878;28;19913;-60
2024/03/29 06:26:15;;;;;;;;;;;;;;;;;;5010735;28;20287;-62
2024/03/29 06:28:41;;;;;;;;;;;;;;;;;;5012120;28;19920;-61
2024/03/29 06:31:07;;;;;;;;;;;;;;;;;;5012288;28;19917;-62
2024/03/29 06:33:33;;;;;;;;;;;;;;;;;;5013110;28;19913;-61
2024/03/29 06:35:59;;;;;;;;;;;;;;;;;;5012968;28;19926;-61
2024/03/29 06:38:25;;;;;;;;;;;;;;;;;;5013050;28;19918;-62
2024/03/29 06:40:50;;;;;;;;;;;;;;;;;;5012011;28;19927;-62
2024/03/29 06:43:16;;;;;;;;;;;;;;;;;;5013047;28;19976;-62
2024/03/29 06:45:42;;;;;;;;;;;;;;;;;;5012667;28;19914;-61
2024/03/29 06:48:08;;;;;;;;;;;;;;;;;;5013429;28;19917;-62
2024/03/29 06:50:34;;;;;;;;;;;;;;;;;;5012116;28;19913;-62
2024/03/29 06:53:00;;;;;;;;;;;;;;;;;;5012646;28;19932;-61
2024/03/29 06:55:26;;;;;;;;;;;;;;;;;;5011180;28;19921;-62
2024/03/29 06:57:52;;;;;;;;;;;;;;;;;;5011045;28;20426;-61
2024/03/29 07:00:18;;;;;;;;;;;;;;;;;;5008707;28;19921;-61
2024/03/29 07:02:43;;;;;;;;;;;;;;;;;;5011954;28;19997;-61
2024/03/29 07:05:11;;;;;;;;;;;;;;;;;;5009088;28;19940;-61
2024/03/29 07:07:37;;;;;;;;;;;;;;;;;;5012822;28;19984;-61
2024/03/29 07:10:02;;;;;;;;;;;;;;;;;;5013461;28;20375;-62
2024/03/29 07:12:28;;;;;;;;;;;;;;;;;;5011066;28;19944;-62
2024/03/29 07:14:54;;;;;;;;;;;;;;;;;;5013576;28;20813;-62
2024/03/29 07:17:20;;;;;;;;;;;;;;;;;;5013624;28;19913;-61
2024/03/29 07:19:46;;;;;;;;;;;;;;;;;;5009850;28;19914;-62
2024/03/29 07:22:12;;;;;;;;;;;;;;;;;;5011438;28;19913;-62
2024/03/29 07:24:38;;;;;;;;;;;;;;;;;;5012767;28;19952;-62
2024/03/29 07:27:04;;;;;;;;;;;;;;;;;;5011395;28;19940;-62
2024/03/29 07:29:31;;;;;;;;;;;;;;;;;;5012123;28;19967;-62
2024/03/29 07:31:57;;;;;;;;;;;;;;;;;;5011387;28;20371;-61
2024/03/29 07:34:22;;;;;;;;;;;;;;;;;;5011400;28;20112;-62
2024/03/29 07:36:48;;;;;;;;;;;;;;;;;;5011197;28;20339;-62
2024/03/29 07:39:14;;;;;;;;;;;;;;;;;;5012400;28;19914;-61
2024/03/29 07:41:40;;;;;;;;;;;;;;;;;;5012238;28;19913;-61
2024/03/29 07:44:08;;;;;;;;;;;;;;;;;;5013577;28;19925;-62
2024/03/29 07:46:34;;;;;;;;;;;;;;;;;;5011283;28;19917;-60
2024/03/29 07:48:59;;;;;;;;;;;;;;;;;;5016392;28;19921;-61
2024/03/29 07:51:25;;;;;;;;;;;;;;;;;;5025223;28;19921;-62
2024/03/29 07:53:52;;;;;;;;;;;;;;;;;;5016362;28;19913;-62
2024/03/29 07:56:18;;;;;;;;;;;;;;;;;;5013107;28;19936;-62
2024/03/29 07:58:44;;;;;;;;;;;;;;;;;;5011093;28;19918;-61
2024/03/29 08:01:09;;;;;;;;;;;;;;;;;;5010109;28;19925;-62
2024/03/29 08:03:36;;;;;;;;;;;;;;;;;;5012090;28;19913;-62
2024/03/29 08:06:05;;;;;;;;;;;;;;;;;;5009016;28;21403;-62
2024/03/29 08:08:31;;;;;;;;;;;;;;;;;;5010713;28;20331;-61
2024/03/29 08:10:57;;;;;;;;;;;;;;;;;;5012512;28;19921;-62
2024/03/29 08:13:24;;;;;;;;;;;;;;;;;;5012935;28;19928;-62
2024/03/29 08:15:50;;;;;;;;;;;;;;;;;;5009618;28;20296;-62
2024/03/29 08:18:16;;;;;;;;;;;;;;;;;;5015369;28;19921;-62
2024/03/29 08:20:42;;;;;;;;;;;;;;;;;;5009802;28;20059;-61
2024/03/29 08:23:08;;;;;;;;;;;;;;;;;;5013645;28;19929;-62
2024/03/29 08:25:34;;;;;;;;;;;;;;;;;;5014033;28;19996;-62
2024/03/29 08:28:00;;;;;;;;;;;;;;;;;;5012270;28;19913;-62
2024/03/29 08:30:26;;;;;;;;;;;;;;;;;;5008774;28;19953;-60
2024/03/29 08:32:53;;;;;;;;;;;;;;;;;;5010934;28;19918;-62
2024/03/29 08:35:19;;;;;;;;;;;;;;;;;;5014312;28;19948;-62
2024/03/29 08:37:45;;;;;;;;;;;;;;;;;;5011750;28;19982;-62
2024/03/29 08:40:11;;;;;;;;;;;;;;;;;;5009860;28;20008;-62
2024/03/29 08:42:38;;;;;;;;;;;;;;;;;;5011953;28;19914;-62
2024/03/29 08:45:05;;;;;;;;;;;;;;;;;;5010887;28;19922;-60
2024/03/29 08:47:32;;;;;;;;;;;;;;;;;;5009110;28;20376;-61
2024/03/29 08:49:59;;;;;;;;;;;;;;;;;;5012562;28;19914;-62
2024/03/29 08:52:25;;;;;;;;;;;;;;;;;;5013652;28;19920;-62
2024/03/29 08:54:51;;;;;;;;;;;;;;;;;;5013933;28;20007;-62
2024/03/29 08:57:17;;;;;;;;;;;;;;;;;;5012246;28;19925;-62
2024/03/29 08:59:42;;;;;;;;;;;;;;;;;;5011758;28;19963;-62
2024/03/29 09:02:08;;;;;;;;;;;;;;;;;;5011315;28;19920;-62
2024/03/29 09:04:34;;;;;;;;;;;;;;;;;;5012722;28;19952;-61
2024/03/29 09:07:02;;;;;;;;;;;;;;;;;;5025107;28;20352;-63
2024/03/29 09:09:27;;;;;;;;;;;;;;;;;;5017374;28;20406;-62
2024/03/29 09:11:54;;;;;;;;;;;;;;;;;;5013823;28;19913;-62
2024/03/29 09:14:20;;;;;;;;;;;;;;;;;;5009827;28;19948;-62
2024/03/29 09:16:49;;;;;;;;;;;;;;;;;;5016314;28;19968;-60
2024/03/29 09:19:15;;;;;;;;;;;;;;;;;;5013788;28;19920;-62
2024/03/29 09:21:41;;;;;;;;;;;;;;;;;;5009868;28;20284;-62
2024/03/29 09:24:07;;;;;;;;;;;;;;;;;;5004836;28;19918;-59
2024/03/29 09:26:32;;;;;;;;;;;;;;;;;;5006536;28;20016;-62
2024/03/29 09:28:58;;;;;;;;;;;;;;;;;;5010341;28;19917;-62
2024/03/29 09:31:24;;;;;;;;;;;;;;;;;;5008985;28;19917;-61
2024/03/29 09:33:57;;;;;;;;;;;;;;;;;;5006705;28;20388;-62
2024/03/29 09:36:23;;;;;;;;;;;;;;;;;;5004530;28;19949;-61
2024/03/29 09:38:49;;;;;;;;;;;;;;;;;;5004172;28;20087;-62
2024/03/29 09:41:14;;;;;;;;;;;;;;;;;;5005325;28;19917;-62
2024/03/29 09:43:41;;;;;;;;;;;;;;;;;;5008255;28;20293;-62
2024/03/29 09:46:07;;;;;;;;;;;;;;;;;;5006410;28;20422;-62
2024/03/29 09:48:36;;;;;;;;;;;;;;;;;;5019897;28;19917;-60
2024/03/29 09:51:02;;;;;;;;;;;;;;;;;;5005209;28;20052;-61
2024/03/29 09:53:28;;;;;;;;;;;;;;;;;;5008651;28;20012;-61
2024/03/29 09:55:53;;;;;;;;;;;;;;;;;;5005815;28;19918;-62
2024/03/29 09:58:19;;;;;;;;;;;;;;;;;;5005014;28;20450;-61
2024/03/29 10:00:45;;;;;;;;;;;;;;;;;;5005020;28;19913;-62
2024/03/29 10:03:11;;;;;;;;;;;;;;;;;;5008480;28;19913;-61
2024/03/29 10:05:37;;;;;;;;;;;;;;;;;;5002182;28;19960;-61
2024/03/29 10:08:07;;;;;;;;;;;;;;;;;;5006969;28;20012;-61
2024/03/29 10:10:32;;;;;;;;;;;;;;;;;;5010682;28;19918;-61
2024/03/29 10:12:58;;;;;;;;;;;;;;;;;;5006339;28;20024;-62
2024/03/29 10:15:27;;;;;;;;;;;;;;;;;;5003742;28;19921;-61
2024/03/29 10:17:53;;;;;;;;;;;;;;;;;;5005731;28;19952;-62
2024/03/29 10:20:18;;;;;;;;;;;;;;;;;;5001308;28;20098;-61
2024/03/29 10:22:44;;;;;;;;;;;;;;;;;;5003836;28;19920;-61
2024/03/29 10:25:10;;;;;;;;;;;;;;;;;;5001373;28;19924;-61
2024/03/29 10:27:36;;;;;;;;;;;;;;;;;;4999513;28;20323;-60
2024/03/29 10:30:03;;;;;;;;;;;;;;;;;;5001764;28;19913;-61
2024/03/29 10:32:29;;;;;;;;;;;;;;;;;;5003673;28;19944;-61
2024/03/29 10:34:55;;;;;;;;;;;;;;;;;;5006162;28;20376;-61
2024/03/29 10:37:26;;;;;;;;;;;;;;;;;;5003706;28;19927;-61
2024/03/29 10:39:52;;;;;;;;;;;;;;;;;;5006098;28;19931;-62
2024/03/29 10:42:18;;;;;;;;;;;;;;;;;;5004087;28;19956;-62
2024/03/29 10:44:44;;;;;;;;;;;;;;;;;;5003869;28;19963;-62
2024/03/29 10:47:10;;;;;;;;;;;;;;;;;;5014704;28;20451;-62
2024/03/29 10:49:36;;;;;;;;;;;;;;;;;;5012446;28;19913;-62
2024/03/29 10:52:02;;;;;;;;;;;;;;;;;;5018110;28;19909;-61
2024/03/29 10:54:28;;;;;;;;;;;;;;;;;;5026216;28;19921;-62
2024/03/29 10:56:54;;;;;;;;;;;;;;;;;;5017964;28;19924;-61
2024/03/29 10:59:20;;;;;;;;;;;;;;;;;;5022376;28;19956;-62
2024/03/29 11:01:46;;;;;;;;;;;;;;;;;;5023652;28;19925;-62
2024/03/29 11:04:12;;;;;;;;;;;;;;;;;;5018964;28;20008;-61
2024/03/29 11:06:40;;;;;;;;;;;;;;;;;;5018495;28;19953;-62
2024/03/29 11:09:06;;;;;;;;;;;;;;;;;;5013738;28;19918;-62
2024/03/29 11:11:36;;;;;;;;;;;;;;;;;;5013797;28;19910;-62
2024/03/29 11:14:02;;;;;;;;;;;;;;;;;;5013660;28;20389;-61
2024/03/29 11:16:27;;;;;;;;;;;;;;;;;;5008659;28;19918;-61
2024/03/29 11:18:53;;;;;;;;;;;;;;;;;;5010199;28;19914;-61
2024/03/29 11:21:20;;;;;;;;;;;;;;;;;;5012382;28;19922;-61
2024/03/29 11:23:45;;;;;;;;;;;;;;;;;;5014660;28;19952;-60
2024/03/29 11:26:11;;;;;;;;;;;;;;;;;;5012061;28;20363;-61
2024/03/29 11:28:37;;;;;;;;;;;;;;;;;;5011060;28;19932;-62
2024/03/29 11:31:06;;;;;;;;;;;;;;;;;;5015266;28;19931;-62
2024/03/29 11:33:33;;;;;;;;;;;;;;;;;;5010031;28;19913;-62
2024/03/29 11:35:59;;;;;;;;;;;;;;;;;;5014044;28;19921;-61
2024/03/29 11:38:25;;;;;;;;;;;;;;;;;;5012027;28;19932;-61
2024/03/29 11:40:51;;;;;;;;;;;;;;;;;;5015280;28;19944;-62
2024/03/29 11:43:16;;;;;;;;;;;;;;;;;;5008653;28;19922;-62
2024/03/29 11:45:42;;;;;;;;;;;;;;;;;;5011518;28;19913;-61
2024/03/29 11:48:08;;;;;;;;;;;;;;;;;;5008106;28;19914;-61
2024/03/29 11:50:34;;;;;;;;;;;;;;;;;;5008103;28;19921;-61
2024/03/29 11:53:00;;;;;;;;;;;;;;;;;;5008078;28;19992;-60
2024/03/29 11:55:27;;;;;;;;;;;;;;;;;;5010522;28;20398;-61
2024/03/29 11:57:53;;;;;;;;;;;;;;;;;;5010704;28;19952;-60
2024/03/29 12:00:19;;;;;;;;;;;;;;;;;;5012826;28;20072;-61
2024/03/29 12:02:44;;;;;;;;;;;;;;;;;;5011907;28;19922;-61
2024/03/29 12:05:10;;;;;;;;;;;;;;;;;;5010357;28;19921;-61
2024/03/29 12:07:36;;;;;;;;;;;;;;;;;;5010396;28;19953;-61
2024/03/29 12:10:02;;;;;;;;;;;;;;;;;;5010456;28;19913;-62
2024/03/29 12:12:31;;;;;;;;;;;;;;;;;;5008554;28;19917;-61
2024/03/29 12:14:56;;;;;;;;;;;;;;;;;;5007903;28;19917;-60
2024/03/29 12:17:22;;;;;;;;;;;;;;;;;;5005895;28;20012;-60
2024/03/29 12:19:50;;;;;;;;;;;;;;;;;;5011003;28;19920;-61
2024/03/29 12:22:16;;;;;;;;;;;;;;;;;;5004068;28;20281;-60
2024/03/29 12:24:43;;;;;;;;;;;;;;;;;;5007609;28;19929;-61
2024/03/29 12:27:09;;;;;;;;;;;;;;;;;;5009302;28;20075;-61
2024/03/29 12:29:35;;;;;;;;;;;;;;;;;;5008913;28;20292;-61
2024/03/29 12:32:01;;;;;;;;;;;;;;;;;;5009640;28;19921;-61
2024/03/29 12:34:27;;;;;;;;;;;;;;;;;;5009203;28;20055;-60
2024/03/29 12:36:52;;;;;;;;;;;;;;;;;;5012785;28;19917;-61
2024/03/29 12:39:19;;;;;;;;;;;;;;;;;;5006801;28;19960;-60
2024/03/29 12:41:45;;;;;;;;;;;;;;;;;;5013099;28;19940;-59
2024/03/29 12:44:11;;;;;;;;;;;;;;;;;;5010832;28;19921;-61
2024/03/29 12:46:37;;;;;;;;;;;;;;;;;;5010259;28;19921;-62
2024/03/29 12:49:03;;;;;;;;;;;;;;;;;;5008257;28;20466;-59
2024/03/29 12:51:35;;;;;;;;;;;;;;;;;;5011839;28;19996;-61
2024/03/29 12:54:03;;;;;;;;;;;;;;;;;;5008929;28;20025;-61
2024/03/29 12:56:29;;;;;;;;;;;;;;;;;;5009615;28;19921;-61
2024/03/29 12:58:55;;;;;;;;;;;;;;;;;;5011823;28;19920;-62
2024/03/29 13:01:20;;;;;;;;;;;;;;;;;;5009914;28;20044;-61
2024/03/29 13:03:46;;;;;;;;;;;;;;;;;;5012843;28;19925;-61
2024/03/29 13:06:12;;;;;;;;;;;;;;;;;;5010718;28;19920;-60
2024/03/29 13:08:38;;;;;;;;;;;;;;;;;;5002648;28;19913;-61
2024/03/29 13:11:04;;;;;;;;;;;;;;;;;;5009115;28;20455;-62
2024/03/29 13:13:30;;;;;;;;;;;;;;;;;;5004664;28;20004;-61
2024/03/29 13:15:56;;;;;;;;;;;;;;;;;;5011870;28;19921;-61
2024/03/29 13:18:22;;;;;;;;;;;;;;;;;;5007646;28;20068;-61
2024/03/29 13:20:47;;;;;;;;;;;;;;;;;;5008211;28;19914;-61
2024/03/29 13:23:14;;;;;;;;;;;;;;;;;;5008087;28;19927;-62
2024/03/29 13:25:40;;;;;;;;;;;;;;;;;;5008339;28;19989;-61
2024/03/29 13:28:07;;;;;;;;;;;;;;;;;;5005419;28;19925;-62
2024/03/29 13:30:33;;;;;;;;;;;;;;;;;;5004101;28;19948;-61
2024/03/29 13:32:59;;;;;;;;;;;;;;;;;;5004567;28;20291;-61
2024/03/29 13:35:24;;;;;;;;;;;;;;;;;;5011679;28;19952;-61
2024/03/29 13:37:51;;;;;;;;;;;;;;;;;;5008150;28;19913;-58
2024/03/29 13:40:17;;;;;;;;;;;;;;;;;;5006804;28;19924;-61
2024/03/29 13:42:43;;;;;;;;;;;;;;;;;;5005953;28;20008;-61
2024/03/29 13:45:10;;;;;;;;;;;;;;;;;;5005518;28;20012;-61
2024/03/29 13:47:35;;;;;;;;;;;;;;;;;;5007823;28;20434;-61
2024/03/29 13:50:01;;;;;;;;;;;;;;;;;;5008550;28;19917;-62
2024/03/29 13:52:27;;;;;;;;;;;;;;;;;;5005436;28;19921;-61
2024/03/29 13:54:53;;;;;;;;;;;;;;;;;;5005647;28;19983;-60
2024/03/29 13:57:19;;;;;;;;;;;;;;;;;;5005617;28;20414;-60
2024/03/29 13:59:45;;;;;;;;;;;;;;;;;;5005990;28;19937;-58
2024/03/29 14:02:11;;;;;;;;;;;;;;;;;;5005522;28;19925;-61
2024/03/29 14:04:37;;;;;;;;;;;;;;;;;;5005234;28;19917;-62
2024/03/29 14:07:06;;;;;;;;;;;;;;;;;;5009160;28;19928;-62
2024/03/29 14:09:32;;;;;;;;;;;;;;;;;;5010023;28;19923;-60
2024/03/29 14:11:58;;;;;;;;;;;;;;;;;;5010307;28;19913;-61
2024/03/29 14:14:24;;;;;;;;;;;;;;;;;;5013200;28;19914;-60
2024/03/29 14:16:50;;;;;;;;;;;;;;;;;;5008702;28;20280;-62
2024/03/29 14:19:16;;;;;;;;;;;;;;;;;;5010196;28;19928;-62
2024/03/29 14:21:41;;;;;;;;;;;;;;;;;;5010854;28;19967;-61
2024/03/29 14:24:07;;;;;;;;;;;;;;;;;;5011487;28;20324;-62
2024/03/29 14:26:34;;;;;;;;;;;;;;;;;;5007824;28;20004;-61
2024/03/29 14:28:59;;;;;;;;;;;;;;;;;;5005623;28;19926;-61
2024/03/29 14:31:25;;;;;;;;;;;;;;;;;;5006608;28;19983;-62
2024/03/29 14:33:51;;;;;;;;;;;;;;;;;;5010762;28;20488;-59
2024/03/29 14:36:17;;;;;;;;;;;;;;;;;;5007474;28;19933;-61
2024/03/29 14:38:43;;;;;;;;;;;;;;;;;;5010577;28;19933;-59
2024/03/29 14:41:09;;;;;;;;;;;;;;;;;;5010236;28;19925;-61
2024/03/29 14:43:35;;;;;;;;;;;;;;;;;;5009546;28;20060;-62
2024/03/29 14:46:00;;;;;;;;;;;;;;;;;;5010943;28;19943;-61
2024/03/29 14:48:26;;;;;;;;;;;;;;;;;;5005223;28;19918;-60
2024/03/29 14:50:54;;;;;;;;;;;;;;;;;;5006439;28;19918;-59
2024/03/29 14:53:20;;;;;;;;;;;;;;;;;;5004344;28;19917;-60
2024/03/29 14:55:46;;;;;;;;;;;;;;;;;;5010446;28;20384;-61
2024/03/29 14:58:12;;;;;;;;;;;;;;;;;;5002804;28;19917;-61
2024/03/29 15:00:38;;;;;;;;;;;;;;;;;;5005895;28;19939;-62
2024/03/29 15:03:04;;;;;;;;;;;;;;;;;;5007138;28;20533;-57
2024/03/29 15:05:30;;;;;;;;;;;;;;;;;;5001354;28;19921;-62
2024/03/29 15:07:56;;;;;;;;;;;;;;;;;;5007394;28;19932;-61
2024/03/29 15:10:21;;;;;;;;;;;;;;;;;;5008680;28;19921;-61
2024/03/29 15:12:47;;;;;;;;;;;;;;;;;;5006031;28;20265;-62
2024/03/29 15:15:13;;;;;;;;;;;;;;;;;;5006487;28;19914;-61
2024/03/29 15:17:39;;;;;;;;;;;;;;;;;;5010342;28;20051;-61
2024/03/29 15:20:06;;;;;;;;;;;;;;;;;;5008661;28;19917;-61
2024/03/29 15:22:32;;;;;;;;;;;;;;;;;;5008067;28;19964;-61
2024/03/29 15:24:58;;;;;;;;;;;;;;;;;;5011247;28;19913;-59
2024/03/29 15:29:03;;;;;;;;;;;;;;;;;;5005015;28;19931;-60
2024/03/29 15:30:12;;;;;;;;;;;;;;;;;;5007654;28;19925;-60
2024/03/29 15:32:38;;;;;;;;;;;;;;;;;;5012659;28;19913;-60
2024/03/29 15:35:04;;;;;;;;;;;;;;;;;;5008289;28;19917;-60
2024/03/29 15:37:30;;;;;;;;;;;;;;;;;;5008575;28;20360;-61
2024/03/29 15:39:56;;;;;;;;;;;;;;;;;;5005889;28;19922;-60
2024/03/29 15:42:22;;;;;;;;;;;;;;;;;;5005040;28;19960;-61
2024/03/29 15:44:48;;;;;;;;;;;;;;;;;;5008120;28;20546;-61
2024/03/29 15:47:15;;;;;;;;;;;;;;;;;;5012145;28;19926;-60
2024/03/29 15:49:40;;;;;;;;;;;;;;;;;;5008795;28;20001;-61
2024/03/29 15:52:08;;;;;;;;;;;;;;;;;;5013195;28;20353;-61
2024/03/29 15:54:33;;;;;;;;;;;;;;;;;;5009437;28;20406;-61
2024/03/29 15:56:59;;;;;;;;;;;;;;;;;;5014131;28;19925;-61
2024/03/29 15:59:25;;;;;;;;;;;;;;;;;;5013689;28;19992;-60
2024/03/29 16:01:51;;;;;;;;;;;;;;;;;;5012653;28;19931;-61
2024/03/29 16:04:17;;;;;;;;;;;;;;;;;;5011374;28;19922;-61
2024/03/29 16:06:44;;;;;;;;;;;;;;;;;;5011862;28;19949;-61
2024/03/29 16:09:10;;;;;;;;;;;;;;;;;;5008579;28;20459;-62
2024/03/29 16:11:36;;;;;;;;;;;;;;;;;;5007581;28;19920;-61
2024/03/29 16:14:02;;;;;;;;;;;;;;;;;;5012570;28;20384;-61
2024/03/29 16:16:29;;;;;;;;;;;;;;;;;;5015736;28;19995;-62
2024/03/29 16:18:55;;;;;;;;;;;;;;;;;;5012040;28;20391;-62
2024/03/29 16:21:21;;;;;;;;;;;;;;;;;;5010948;28;19949;-61
2024/03/29 16:23:47;;;;;;;;;;;;;;;;;;5009408;28;20342;-61
2024/03/29 16:26:13;;;;;;;;;;;;;;;;;;5009336;28;19917;-60
2024/03/29 16:28:39;;;;;;;;;;;;;;;;;;5007268;28;19918;-60
2024/03/29 16:31:05;;;;;;;;;;;;;;;;;;5009222;28;20004;-61
2024/03/29 16:33:31;;;;;;;;;;;;;;;;;;5007752;28;19913;-61
2024/03/29 16:35:57;;;;;;;;;;;;;;;;;;5006536;28;20024;-61
2024/03/29 16:38:23;;;;;;;;;;;;;;;;;;5012678;28;19918;-61
2024/03/29 16:40:48;;;;;;;;;;;;;;;;;;5014756;28;20238;-62
2024/03/29 16:43:14;;;;;;;;;;;;;;;;;;5007033;28;20008;-57
2024/03/29 16:45:40;;;;;;;;;;;;;;;;;;5010650;28;20632;-62
2024/03/29 16:48:06;;;;;;;;;;;;;;;;;;5007949;28;19918;-62
2024/03/29 16:50:33;;;;;;;;;;;;;;;;;;5002933;28;19952;-61